This is the latest recevied weather packets stored in our database for station/object K6QM-1. If no packets are shown the sender has not sent any weather packets the latest 10 day(s).
| Time | Temp. | Humidity | Pressure | Rain* | Wind** | Luminosity | Snow |
|---|---|---|---|---|---|---|---|
| 1777353895 | 16.11° C | 49% | 1019.8 hPa | - | - | - | - |
| 1777352995 | 16.11° C | 49% | 1019.6 hPa | - | - | - | - |
| 1777352095 | 16.11° C | 49% | 1019.7 hPa | - | - | - | - |
| 1777351195 | 16.67° C | 48% | 1019.6 hPa | - | - | - | - |
| 1777350295 | 16.67° C | 48% | 1019.6 hPa | - | - | - | - |
| 1777349395 | 16.67° C | 48% | 1019.4 hPa | - | - | - | - |
| 1777348494 | 16.11° C | 49% | 1019.3 hPa | - | - | - | - |
| 1777347594 | 16.67° C | 48% | 1019.1 hPa | - | - | - | - |
| 1777345794 | 17.22° C | 46% | 1019 hPa | - | - | - | - |
| 1777344894 | 17.22° C | 44% | 1018.8 hPa | - | - | - | - |
| 1777343094 | 18.33° C | 41% | 1018.3 hPa | - | - | - | - |
| 1777342194 | 19.44° C | 39% | 1018.2 hPa | - | - | - | - |
| 1777341294 | 20° C | 39% | 1017.9 hPa | - | - | - | - |
| 1777339494 | 20.56° C | 37% | 1017.8 hPa | - | - | - | - |
| 1777337694 | 19.44° C | 36% | 1014 hPa | - | - | - | - |
| 1777306191 | 17.78° C | 56% | 1018.4 hPa | - | - | - | - |
| 1777304390 | 16.11° C | 59% | 1018.4 hPa | - | - | - | - |
| 1777300790 | 15° C | 63% | 1017.9 hPa | - | - | - | - |
| 1777299890 | 14.44° C | 64% | 1017.7 hPa | - | - | - | - |
| 1777298990 | 14.44° C | 67% | 1017.6 hPa | - | - | - | - |
| 1777297190 | 14.44° C | 63% | 1017.5 hPa | - | - | - | - |
| 1777295389 | 15° C | 58% | 1016.9 hPa | - | - | - | - |
| 1777292690 | 15° C | 57% | 1016.8 hPa | - | - | - | - |
| 1777291789 | 15° C | 56% | 1016.9 hPa | - | - | - | - |
| 1777289089 | 15° C | 56% | 1017.1 hPa | - | - | - | - |
* Rain since midnight (hover to see other rain measurements)
** Current wind speed in m/s (hover to see current wind gust speed)